sensor_id;sensor_type;location;lat;lon;timestamp;P1;durP1;ratioP1;P2;durP2;ratioP2
60726;SDS011;46577;49.004;12.120;2023-12-07T00:02:14;30.17;;;15.10;;
60726;SDS011;46577;49.004;12.120;2023-12-07T00:04:40;29.97;;;15.60;;
60726;SDS011;46577;49.004;12.120;2023-12-07T00:07:06;26.47;;;14.13;;
60726;SDS011;46577;49.004;12.120;2023-12-07T00:09:32;26.63;;;14.57;;
60726;SDS011;46577;49.004;12.120;2023-12-07T00:11:58;27.90;;;14.17;;
60726;SDS011;46577;49.004;12.120;2023-12-07T00:14:24;29.33;;;15.90;;
60726;SDS011;46577;49.004;12.120;2023-12-07T00:16:50;26.90;;;13.40;;
60726;SDS011;46577;49.004;12.120;2023-12-07T00:19:16;26.83;;;14.60;;
60726;SDS011;46577;49.004;12.120;2023-12-07T00:21:42;25.07;;;14.63;;
60726;SDS011;46577;49.004;12.120;2023-12-07T00:24:08;24.07;;;14.50;;
60726;SDS011;46577;49.004;12.120;2023-12-07T00:26:33;25.03;;;13.60;;
60726;SDS011;46577;49.004;12.120;2023-12-07T00:28:59;26.33;;;14.50;;
60726;SDS011;46577;49.004;12.120;2023-12-07T00:31:26;26.57;;;15.07;;
60726;SDS011;46577;49.004;12.120;2023-12-07T00:33:52;24.03;;;15.07;;
60726;SDS011;46577;49.004;12.120;2023-12-07T00:36:18;24.73;;;14.40;;
60726;SDS011;46577;49.004;12.120;2023-12-07T00:38:43;24.53;;;14.80;;
60726;SDS011;46577;49.004;12.120;2023-12-07T00:41:10;29.20;;;15.17;;
60726;SDS011;46577;49.004;12.120;2023-12-07T00:43:36;25.00;;;14.10;;
60726;SDS011;46577;49.004;12.120;2023-12-07T00:46:02;28.67;;;15.63;;
60726;SDS011;46577;49.004;12.120;2023-12-07T00:48:28;26.97;;;14.13;;
60726;SDS011;46577;49.004;12.120;2023-12-07T00:50:54;25.00;;;14.50;;
60726;SDS011;46577;49.004;12.120;2023-12-07T00:53:20;28.33;;;14.07;;
60726;SDS011;46577;49.004;12.120;2023-12-07T00:55:46;25.70;;;15.03;;
60726;SDS011;46577;49.004;12.120;2023-12-07T00:58:12;32.37;;;14.97;;
60726;SDS011;46577;49.004;12.120;2023-12-07T01:00:38;28.33;;;14.70;;
60726;SDS011;46577;49.004;12.120;2023-12-07T01:03:04;23.70;;;13.60;;
60726;SDS011;46577;49.004;12.120;2023-12-07T01:05:30;29.50;;;13.73;;
60726;SDS011;46577;49.004;12.120;2023-12-07T01:07:57;28.27;;;14.90;;
60726;SDS011;46577;49.004;12.120;2023-12-07T01:10:23;26.10;;;14.60;;
60726;SDS011;46577;49.004;12.120;2023-12-07T01:12:49;30.43;;;16.07;;
60726;SDS011;46577;49.004;12.120;2023-12-07T01:15:15;24.97;;;14.80;;
60726;SDS011;46577;49.004;12.120;2023-12-07T01:17:41;24.87;;;13.50;;
60726;SDS011;46577;49.004;12.120;2023-12-07T01:20:07;27.97;;;14.63;;
60726;SDS011;46577;49.004;12.120;2023-12-07T01:22:37;21.97;;;13.03;;
60726;SDS011;46577;49.004;12.120;2023-12-07T01:25:04;27.87;;;15.30;;
60726;SDS011;46577;49.004;12.120;2023-12-07T01:27:30;22.77;;;13.80;;
60726;SDS011;46577;49.004;12.120;2023-12-07T01:29:56;30.20;;;14.20;;
60726;SDS011;46577;49.004;12.120;2023-12-07T01:32:22;22.83;;;13.40;;
60726;SDS011;46577;49.004;12.120;2023-12-07T01:34:48;27.23;;;13.83;;
60726;SDS011;46577;49.004;12.120;2023-12-07T01:37:14;26.80;;;15.30;;
60726;SDS011;46577;49.004;12.120;2023-12-07T01:39:43;23.23;;;12.53;;
60726;SDS011;46577;49.004;12.120;2023-12-07T01:42:09;19.13;;;12.37;;
60726;SDS011;46577;49.004;12.120;2023-12-07T01:44:37;25.70;;;15.40;;
60726;SDS011;46577;49.004;12.120;2023-12-07T01:47:03;25.70;;;14.50;;
60726;SDS011;46577;49.004;12.120;2023-12-07T01:49:29;26.03;;;14.30;;
60726;SDS011;46577;49.004;12.120;2023-12-07T01:51:56;26.20;;;14.17;;
60726;SDS011;46577;49.004;12.120;2023-12-07T01:54:22;27.70;;;14.03;;
60726;SDS011;46577;49.004;12.120;2023-12-07T01:56:50;24.80;;;14.30;;
60726;SDS011;46577;49.004;12.120;2023-12-07T01:59:17;26.00;;;13.90;;
60726;SDS011;46577;49.004;12.120;2023-12-07T02:01:43;29.90;;;15.80;;
60726;SDS011;46577;49.004;12.120;2023-12-07T02:04:09;22.40;;;13.17;;
60726;SDS011;46577;49.004;12.120;2023-12-07T02:06:35;24.93;;;13.87;;
60726;SDS011;46577;49.004;12.120;2023-12-07T02:09:02;24.63;;;13.47;;
60726;SDS011;46577;49.004;12.120;2023-12-07T02:11:28;25.07;;;14.20;;
60726;SDS011;46577;49.004;12.120;2023-12-07T02:13:54;26.93;;;13.67;;
60726;SDS011;46577;49.004;12.120;2023-12-07T02:16:34;24.90;;;13.60;;
60726;SDS011;46577;49.004;12.120;2023-12-07T02:21:49;25.73;;;13.10;;
60726;SDS011;46577;49.004;12.120;2023-12-07T02:24:19;21.20;;;11.57;;
60726;SDS011;46577;49.004;12.120;2023-12-07T02:26:46;23.80;;;13.77;;
60726;SDS011;46577;49.004;12.120;2023-12-07T02:29:12;25.73;;;13.00;;
60726;SDS011;46577;49.004;12.120;2023-12-07T02:31:38;21.30;;;13.53;;
60726;SDS011;46577;49.004;12.120;2023-12-07T02:34:04;25.47;;;15.40;;
60726;SDS011;46577;49.004;12.120;2023-12-07T02:36:30;27.33;;;14.50;;
60726;SDS011;46577;49.004;12.120;2023-12-07T02:38:58;26.87;;;14.13;;
60726;SDS011;46577;49.004;12.120;2023-12-07T02:41:28;24.30;;;12.93;;
60726;SDS011;46577;49.004;12.120;2023-12-07T02:43:56;20.97;;;12.57;;
60726;SDS011;46577;49.004;12.120;2023-12-07T02:46:23;24.43;;;13.97;;
60726;SDS011;46577;49.004;12.120;2023-12-07T02:48:49;18.63;;;12.10;;
60726;SDS011;46577;49.004;12.120;2023-12-07T02:51:15;26.47;;;14.23;;
60726;SDS011;46577;49.004;12.120;2023-12-07T02:53:41;23.93;;;12.87;;
60726;SDS011;46577;49.004;12.120;2023-12-07T02:56:07;23.00;;;13.40;;
60726;SDS011;46577;49.004;12.120;2023-12-07T02:58:33;25.07;;;14.30;;
60726;SDS011;46577;49.004;12.120;2023-12-07T03:00:59;22.43;;;13.00;;
60726;SDS011;46577;49.004;12.120;2023-12-07T03:03:25;23.90;;;14.07;;
60726;SDS011;46577;49.004;12.120;2023-12-07T03:05:51;25.80;;;12.87;;
60726;SDS011;46577;49.004;12.120;2023-12-07T03:08:17;22.83;;;14.27;;
60726;SDS011;46577;49.004;12.120;2023-12-07T03:10:43;22.67;;;14.27;;
60726;SDS011;46577;49.004;12.120;2023-12-07T03:13:09;29.00;;;14.60;;
60726;SDS011;46577;49.004;12.120;2023-12-07T03:15:35;22.47;;;13.23;;
60726;SDS011;46577;49.004;12.120;2023-12-07T03:18:01;25.60;;;13.33;;
60726;SDS011;46577;49.004;12.120;2023-12-07T03:20:27;29.37;;;14.53;;
60726;SDS011;46577;49.004;12.120;2023-12-07T03:22:53;27.47;;;14.57;;
60726;SDS011;46577;49.004;12.120;2023-12-07T03:25:19;33.93;;;14.83;;
60726;SDS011;46577;49.004;12.120;2023-12-07T03:27:45;26.20;;;15.37;;
60726;SDS011;46577;49.004;12.120;2023-12-07T03:30:11;29.07;;;14.70;;
60726;SDS011;46577;49.004;12.120;2023-12-07T03:32:38;29.07;;;14.80;;
60726;SDS011;46577;49.004;12.120;2023-12-07T03:35:04;32.40;;;15.90;;
60726;SDS011;46577;49.004;12.120;2023-12-07T03:37:30;25.27;;;13.27;;
60726;SDS011;46577;49.004;12.120;2023-12-07T03:39:56;29.00;;;14.93;;
60726;SDS011;46577;49.004;12.120;2023-12-07T03:42:22;26.53;;;12.50;;
60726;SDS011;46577;49.004;12.120;2023-12-07T03:44:48;25.77;;;14.10;;
60726;SDS011;46577;49.004;12.120;2023-12-07T03:47:14;28.97;;;14.67;;
60726;SDS011;46577;49.004;12.120;2023-12-07T03:49:40;26.33;;;14.87;;
60726;SDS011;46577;49.004;12.120;2023-12-07T03:52:07;24.80;;;14.00;;
60726;SDS011;46577;49.004;12.120;2023-12-07T03:54:33;25.43;;;13.63;;
60726;SDS011;46577;49.004;12.120;2023-12-07T03:56:59;23.40;;;14.10;;
60726;SDS011;46577;49.004;12.120;2023-12-07T03:59:25;30.67;;;15.20;;
60726;SDS011;46577;49.004;12.120;2023-12-07T04:01:51;24.77;;;13.80;;
60726;SDS011;46577;49.004;12.120;2023-12-07T04:04:17;26.97;;;13.40;;
60726;SDS011;46577;49.004;12.120;2023-12-07T04:06:43;24.07;;;14.73;;
60726;SDS011;46577;49.004;12.120;2023-12-07T04:09:08;25.67;;;13.83;;
60726;SDS011;46577;49.004;12.120;2023-12-07T04:11:34;26.17;;;13.17;;
60726;SDS011;46577;49.004;12.120;2023-12-07T04:14:00;25.07;;;13.50;;
60726;SDS011;46577;49.004;12.120;2023-12-07T04:16:26;26.10;;;14.53;;
60726;SDS011;46577;49.004;12.120;2023-12-07T04:18:52;23.80;;;13.97;;
60726;SDS011;46577;49.004;12.120;2023-12-07T04:21:18;28.20;;;14.23;;
60726;SDS011;46577;49.004;12.120;2023-12-07T04:23:44;30.53;;;14.23;;
60726;SDS011;46577;49.004;12.120;2023-12-07T04:26:10;25.87;;;13.77;;
60726;SDS011;46577;49.004;12.120;2023-12-07T04:28:36;28.60;;;13.87;;
60726;SDS011;46577;49.004;12.120;2023-12-07T04:31:02;34.53;;;14.63;;
60726;SDS011;46577;49.004;12.120;2023-12-07T04:33:29;32.67;;;16.13;;
60726;SDS011;46577;49.004;12.120;2023-12-07T04:35:55;30.40;;;15.37;;
60726;SDS011;46577;49.004;12.120;2023-12-07T04:38:21;28.83;;;14.30;;
60726;SDS011;46577;49.004;12.120;2023-12-07T04:40:47;27.30;;;15.37;;
60726;SDS011;46577;49.004;12.120;2023-12-07T04:43:14;26.10;;;14.27;;
60726;SDS011;46577;49.004;12.120;2023-12-07T04:45:40;35.70;;;13.80;;
60726;SDS011;46577;49.004;12.120;2023-12-07T04:48:06;27.37;;;15.27;;
60726;SDS011;46577;49.004;12.120;2023-12-07T04:50:32;27.80;;;14.03;;
60726;SDS011;46577;49.004;12.120;2023-12-07T04:52:58;29.37;;;16.40;;
60726;SDS011;46577;49.004;12.120;2023-12-07T04:55:24;31.67;;;15.20;;
60726;SDS011;46577;49.004;12.120;2023-12-07T04:57:51;27.00;;;15.10;;
60726;SDS011;46577;49.004;12.120;2023-12-07T05:00:17;31.97;;;15.27;;
60726;SDS011;46577;49.004;12.120;2023-12-07T05:02:43;33.77;;;15.00;;
60726;SDS011;46577;49.004;12.120;2023-12-07T05:05:09;35.40;;;15.40;;
60726;SDS011;46577;49.004;12.120;2023-12-07T05:07:35;30.77;;;15.60;;
60726;SDS011;46577;49.004;12.120;2023-12-07T05:10:01;24.70;;;14.00;;
60726;SDS011;46577;49.004;12.120;2023-12-07T05:12:27;30.93;;;15.40;;
60726;SDS011;46577;49.004;12.120;2023-12-07T05:14:53;29.10;;;14.87;;
60726;SDS011;46577;49.004;12.120;2023-12-07T05:17:19;27.63;;;16.00;;
60726;SDS011;46577;49.004;12.120;2023-12-07T05:19:45;38.23;;;16.33;;
60726;SDS011;46577;49.004;12.120;2023-12-07T05:22:11;29.00;;;16.03;;
60726;SDS011;46577;49.004;12.120;2023-12-07T05:24:38;30.20;;;15.77;;
60726;SDS011;46577;49.004;12.120;2023-12-07T05:27:04;33.77;;;16.00;;
60726;SDS011;46577;49.004;12.120;2023-12-07T05:29:30;31.13;;;16.67;;
60726;SDS011;46577;49.004;12.120;2023-12-07T05:31:56;31.33;;;17.13;;
60726;SDS011;46577;49.004;12.120;2023-12-07T05:34:22;30.40;;;15.37;;
60726;SDS011;46577;49.004;12.120;2023-12-07T05:36:48;35.23;;;16.43;;
60726;SDS011;46577;49.004;12.120;2023-12-07T05:39:14;27.33;;;15.63;;
60726;SDS011;46577;49.004;12.120;2023-12-07T05:41:42;27.30;;;15.50;;
60726;SDS011;46577;49.004;12.120;2023-12-07T05:44:08;29.13;;;14.63;;
60726;SDS011;46577;49.004;12.120;2023-12-07T05:46:37;32.87;;;17.40;;
60726;SDS011;46577;49.004;12.120;2023-12-07T05:49:08;33.60;;;16.30;;
60726;SDS011;46577;49.004;12.120;2023-12-07T05:51:34;26.57;;;15.17;;
60726;SDS011;46577;49.004;12.120;2023-12-07T05:54:00;29.67;;;16.70;;
60726;SDS011;46577;49.004;12.120;2023-12-07T05:56:28;30.23;;;16.43;;
60726;SDS011;46577;49.004;12.120;2023-12-07T05:58:54;31.27;;;15.93;;
60726;SDS011;46577;49.004;12.120;2023-12-07T06:01:20;31.27;;;16.00;;
60726;SDS011;46577;49.004;12.120;2023-12-07T06:03:45;29.80;;;16.03;;
60726;SDS011;46577;49.004;12.120;2023-12-07T06:06:11;29.00;;;16.07;;
60726;SDS011;46577;49.004;12.120;2023-12-07T06:08:38;35.37;;;18.30;;
60726;SDS011;46577;49.004;12.120;2023-12-07T06:11:04;42.50;;;20.60;;
60726;SDS011;46577;49.004;12.120;2023-12-07T06:13:30;29.40;;;16.87;;
60726;SDS011;46577;49.004;12.120;2023-12-07T06:15:56;32.93;;;16.07;;
60726;SDS011;46577;49.004;12.120;2023-12-07T06:18:22;33.07;;;17.07;;
60726;SDS011;46577;49.004;12.120;2023-12-07T06:20:48;30.37;;;15.13;;
60726;SDS011;46577;49.004;12.120;2023-12-07T06:23:15;41.60;;;16.37;;
60726;SDS011;46577;49.004;12.120;2023-12-07T06:25:41;32.27;;;17.77;;
60726;SDS011;46577;49.004;12.120;2023-12-07T06:28:07;33.03;;;17.17;;
60726;SDS011;46577;49.004;12.120;2023-12-07T06:30:33;33.93;;;17.70;;
60726;SDS011;46577;49.004;12.120;2023-12-07T06:32:59;41.43;;;17.97;;
60726;SDS011;46577;49.004;12.120;2023-12-07T06:35:25;30.53;;;16.33;;
60726;SDS011;46577;49.004;12.120;2023-12-07T06:37:52;31.10;;;16.80;;
60726;SDS011;46577;49.004;12.120;2023-12-07T06:40:18;46.30;;;17.77;;
60726;SDS011;46577;49.004;12.120;2023-12-07T06:42:45;32.00;;;16.50;;
60726;SDS011;46577;49.004;12.120;2023-12-07T06:45:11;38.27;;;18.70;;
60726;SDS011;46577;49.004;12.120;2023-12-07T06:47:39;41.87;;;18.63;;
60726;SDS011;46577;49.004;12.120;2023-12-07T06:50:07;39.57;;;19.83;;
60726;SDS011;46577;49.004;12.120;2023-12-07T06:52:36;43.80;;;18.63;;
60726;SDS011;46577;49.004;12.120;2023-12-07T06:55:02;44.60;;;19.00;;
60726;SDS011;46577;49.004;12.120;2023-12-07T06:57:29;35.97;;;17.70;;
60726;SDS011;46577;49.004;12.120;2023-12-07T06:59:55;45.13;;;18.10;;
60726;SDS011;46577;49.004;12.120;2023-12-07T07:02:21;36.83;;;17.83;;
60726;SDS011;46577;49.004;12.120;2023-12-07T07:04:48;36.23;;;16.80;;
60726;SDS011;46577;49.004;12.120;2023-12-07T07:07:17;40.20;;;19.70;;
60726;SDS011;46577;49.004;12.120;2023-12-07T07:09:43;37.23;;;19.40;;
60726;SDS011;46577;49.004;12.120;2023-12-07T07:12:10;40.03;;;18.80;;
60726;SDS011;46577;49.004;12.120;2023-12-07T07:14:36;43.73;;;18.93;;
60726;SDS011;46577;49.004;12.120;2023-12-07T07:17:02;32.90;;;18.30;;
60726;SDS011;46577;49.004;12.120;2023-12-07T07:19:29;33.80;;;17.77;;
60726;SDS011;46577;49.004;12.120;2023-12-07T07:21:55;40.47;;;21.47;;
60726;SDS011;46577;49.004;12.120;2023-12-07T07:24:21;42.83;;;17.73;;
60726;SDS011;46577;49.004;12.120;2023-12-07T07:26:47;36.43;;;18.77;;
60726;SDS011;46577;49.004;12.120;2023-12-07T07:29:13;37.20;;;17.73;;
60726;SDS011;46577;49.004;12.120;2023-12-07T07:31:39;38.30;;;18.63;;
60726;SDS011;46577;49.004;12.120;2023-12-07T07:34:05;43.90;;;19.80;;
60726;SDS011;46577;49.004;12.120;2023-12-07T07:36:31;38.70;;;18.07;;
60726;SDS011;46577;49.004;12.120;2023-12-07T07:38:57;39.20;;;19.13;;
60726;SDS011;46577;49.004;12.120;2023-12-07T07:41:23;40.83;;;17.30;;
60726;SDS011;46577;49.004;12.120;2023-12-07T07:43:49;39.73;;;16.43;;
60726;SDS011;46577;49.004;12.120;2023-12-07T07:46:15;35.07;;;17.00;;
60726;SDS011;46577;49.004;12.120;2023-12-07T07:48:42;31.90;;;18.93;;
60726;SDS011;46577;49.004;12.120;2023-12-07T07:51:08;32.77;;;17.90;;
60726;SDS011;46577;49.004;12.120;2023-12-07T07:53:34;32.53;;;17.97;;
60726;SDS011;46577;49.004;12.120;2023-12-07T07:55:59;34.97;;;16.43;;
60726;SDS011;46577;49.004;12.120;2023-12-07T07:58:25;31.27;;;17.17;;
60726;SDS011;46577;49.004;12.120;2023-12-07T08:00:51;37.10;;;17.90;;
60726;SDS011;46577;49.004;12.120;2023-12-07T08:03:17;31.87;;;17.40;;
60726;SDS011;46577;49.004;12.120;2023-12-07T08:05:43;29.70;;;17.37;;
60726;SDS011;46577;49.004;12.120;2023-12-07T08:08:10;31.60;;;17.67;;
60726;SDS011;46577;49.004;12.120;2023-12-07T08:10:36;41.17;;;19.23;;
60726;SDS011;46577;49.004;12.120;2023-12-07T08:13:04;34.33;;;18.20;;
60726;SDS011;46577;49.004;12.120;2023-12-07T08:15:31;33.10;;;18.77;;
60726;SDS011;46577;49.004;12.120;2023-12-07T08:17:57;33.53;;;18.73;;
60726;SDS011;46577;49.004;12.120;2023-12-07T08:20:23;34.53;;;18.57;;
60726;SDS011;46577;49.004;12.120;2023-12-07T08:22:49;31.63;;;17.87;;
60726;SDS011;46577;49.004;12.120;2023-12-07T08:25:15;32.07;;;18.30;;
60726;SDS011;46577;49.004;12.120;2023-12-07T08:27:42;35.07;;;17.50;;
60726;SDS011;46577;49.004;12.120;2023-12-07T08:30:10;29.97;;;17.23;;
60726;SDS011;46577;49.004;12.120;2023-12-07T08:32:36;30.73;;;16.00;;
60726;SDS011;46577;49.004;12.120;2023-12-07T08:35:02;33.27;;;18.20;;
60726;SDS011;46577;49.004;12.120;2023-12-07T08:37:30;29.60;;;16.50;;
60726;SDS011;46577;49.004;12.120;2023-12-07T08:39:56;31.57;;;18.13;;
60726;SDS011;46577;49.004;12.120;2023-12-07T08:42:22;33.37;;;18.30;;
60726;SDS011;46577;49.004;12.120;2023-12-07T08:44:48;29.13;;;16.57;;
60726;SDS011;46577;49.004;12.120;2023-12-07T08:47:14;32.37;;;17.87;;
60726;SDS011;46577;49.004;12.120;2023-12-07T08:49:40;31.50;;;18.40;;
60726;SDS011;46577;49.004;12.120;2023-12-07T08:52:06;32.50;;;19.00;;
60726;SDS011;46577;49.004;12.120;2023-12-07T08:54:32;32.77;;;18.60;;
60726;SDS011;46577;49.004;12.120;2023-12-07T08:56:58;30.40;;;18.23;;
60726;SDS011;46577;49.004;12.120;2023-12-07T08:59:24;25.03;;;15.17;;
60726;SDS011;46577;49.004;12.120;2023-12-07T09:01:50;26.63;;;16.27;;
60726;SDS011;46577;49.004;12.120;2023-12-07T09:04:16;26.73;;;16.47;;
60726;SDS011;46577;49.004;12.120;2023-12-07T09:06:42;27.17;;;16.30;;
60726;SDS011;46577;49.004;12.120;2023-12-07T09:09:08;25.67;;;15.50;;
60726;SDS011;46577;49.004;12.120;2023-12-07T09:11:36;22.00;;;15.03;;
60726;SDS011;46577;49.004;12.120;2023-12-07T09:14:02;24.97;;;15.27;;
60726;SDS011;46577;49.004;12.120;2023-12-07T09:16:28;22.30;;;14.40;;
60726;SDS011;46577;49.004;12.120;2023-12-07T09:18:54;17.00;;;12.27;;
60726;SDS011;46577;49.004;12.120;2023-12-07T09:21:21;18.00;;;13.33;;
60726;SDS011;46577;49.004;12.120;2023-12-07T09:23:46;15.73;;;11.80;;
60726;SDS011;46577;49.004;12.120;2023-12-07T09:26:13;16.37;;;13.03;;
60726;SDS011;46577;49.004;12.120;2023-12-07T09:28:39;16.63;;;12.57;;
60726;SDS011;46577;49.004;12.120;2023-12-07T09:31:05;15.83;;;11.90;;
60726;SDS011;46577;49.004;12.120;2023-12-07T09:33:31;16.30;;;12.07;;
60726;SDS011;46577;49.004;12.120;2023-12-07T09:35:57;17.87;;;11.50;;
60726;SDS011;46577;49.004;12.120;2023-12-07T09:38:23;17.03;;;13.40;;
60726;SDS011;46577;49.004;12.120;2023-12-07T09:40:52;23.80;;;16.57;;
60726;SDS011;46577;49.004;12.120;2023-12-07T09:43:18;26.67;;;16.67;;
60726;SDS011;46577;49.004;12.120;2023-12-07T09:45:44;22.70;;;15.40;;
60726;SDS011;46577;49.004;12.120;2023-12-07T09:48:11;21.93;;;14.90;;
60726;SDS011;46577;49.004;12.120;2023-12-07T09:50:37;23.50;;;14.90;;
60726;SDS011;46577;49.004;12.120;2023-12-07T09:53:03;21.73;;;14.37;;
60726;SDS011;46577;49.004;12.120;2023-12-07T09:55:29;22.43;;;14.63;;
60726;SDS011;46577;49.004;12.120;2023-12-07T09:57:55;23.83;;;14.60;;
60726;SDS011;46577;49.004;12.120;2023-12-07T10:00:23;24.90;;;15.60;;
60726;SDS011;46577;49.004;12.120;2023-12-07T10:02:49;21.20;;;15.53;;
60726;SDS011;46577;49.004;12.120;2023-12-07T10:05:15;27.73;;;16.17;;
60726;SDS011;46577;49.004;12.120;2023-12-07T10:07:45;22.07;;;15.67;;
60726;SDS011;46577;49.004;12.120;2023-12-07T10:10:14;22.13;;;15.00;;
60726;SDS011;46577;49.004;12.120;2023-12-07T10:13:14;22.37;;;14.47;;
60726;SDS011;46577;49.004;12.120;2023-12-07T10:15:33;19.90;;;15.37;;
60726;SDS011;46577;49.004;12.120;2023-12-07T10:17:59;21.90;;;15.53;;
60726;SDS011;46577;49.004;12.120;2023-12-07T10:20:28;18.70;;;15.70;;
60726;SDS011;46577;49.004;12.120;2023-12-07T10:23:01;21.10;;;16.50;;
60726;SDS011;46577;49.004;12.120;2023-12-07T10:25:33;19.47;;;15.90;;
60726;SDS011;46577;49.004;12.120;2023-12-07T10:27:59;18.97;;;15.20;;
60726;SDS011;46577;49.004;12.120;2023-12-07T10:30:26;21.43;;;16.80;;
60726;SDS011;46577;49.004;12.120;2023-12-07T10:32:52;20.63;;;16.20;;
60726;SDS011;46577;49.004;12.120;2023-12-07T10:35:18;26.70;;;17.83;;
60726;SDS011;46577;49.004;12.120;2023-12-07T10:37:45;22.23;;;16.63;;
60726;SDS011;46577;49.004;12.120;2023-12-07T10:40:12;23.27;;;16.33;;
60726;SDS011;46577;49.004;12.120;2023-12-07T10:42:38;24.27;;;17.57;;
60726;SDS011;46577;49.004;12.120;2023-12-07T10:45:06;21.20;;;14.90;;
60726;SDS011;46577;49.004;12.120;2023-12-07T10:47:35;27.23;;;17.73;;
60726;SDS011;46577;49.004;12.120;2023-12-07T10:50:02;24.60;;;17.50;;
60726;SDS011;46577;49.004;12.120;2023-12-07T10:52:28;25.30;;;16.93;;
60726;SDS011;46577;49.004;12.120;2023-12-07T10:55:03;30.50;;;19.03;;
60726;SDS011;46577;49.004;12.120;2023-12-07T10:57:32;35.93;;;20.00;;
60726;SDS011;46577;49.004;12.120;2023-12-07T11:00:00;29.90;;;18.00;;
60726;SDS011;46577;49.004;12.120;2023-12-07T11:02:29;30.00;;;19.10;;
60726;SDS011;46577;49.004;12.120;2023-12-07T11:04:56;32.13;;;19.03;;
60726;SDS011;46577;49.004;12.120;2023-12-07T11:07:23;28.70;;;18.40;;
60726;SDS011;46577;49.004;12.120;2023-12-07T11:10:00;33.07;;;19.03;;
60726;SDS011;46577;49.004;12.120;2023-12-07T11:15:26;26.27;;;18.30;;
60726;SDS011;46577;49.004;12.120;2023-12-07T11:17:56;28.63;;;18.30;;
60726;SDS011;46577;49.004;12.120;2023-12-07T11:20:39;33.37;;;20.20;;
60726;SDS011;46577;49.004;12.120;2023-12-07T11:23:18;24.43;;;18.40;;
60726;SDS011;46577;49.004;12.120;2023-12-07T11:25:44;24.60;;;17.50;;
60726;SDS011;46577;49.004;12.120;2023-12-07T11:28:11;25.63;;;18.60;;
60726;SDS011;46577;49.004;12.120;2023-12-07T11:30:37;31.03;;;20.40;;
60726;SDS011;46577;49.004;12.120;2023-12-07T11:33:04;26.33;;;18.37;;
60726;SDS011;46577;49.004;12.120;2023-12-07T11:35:30;25.60;;;18.57;;
60726;SDS011;46577;49.004;12.120;2023-12-07T11:38:00;36.20;;;21.30;;
60726;SDS011;46577;49.004;12.120;2023-12-07T11:40:28;33.67;;;21.60;;
60726;SDS011;46577;49.004;12.120;2023-12-07T11:42:55;36.23;;;21.80;;
60726;SDS011;46577;49.004;12.120;2023-12-07T11:45:37;36.67;;;20.93;;
60726;SDS011;46577;49.004;12.120;2023-12-07T11:48:07;32.27;;;21.10;;
60726;SDS011;46577;49.004;12.120;2023-12-07T11:50:33;34.87;;;21.70;;
60726;SDS011;46577;49.004;12.120;2023-12-07T11:52:59;37.07;;;21.30;;
60726;SDS011;46577;49.004;12.120;2023-12-07T11:55:25;32.80;;;19.37;;
60726;SDS011;46577;49.004;12.120;2023-12-07T11:57:51;36.10;;;20.47;;
60726;SDS011;46577;49.004;12.120;2023-12-07T12:00:17;39.67;;;19.90;;
60726;SDS011;46577;49.004;12.120;2023-12-07T12:02:46;32.90;;;19.00;;
60726;SDS011;46577;49.004;12.120;2023-12-07T12:05:13;33.20;;;19.50;;
60726;SDS011;46577;49.004;12.120;2023-12-07T12:07:39;35.90;;;19.83;;
60726;SDS011;46577;49.004;12.120;2023-12-07T12:10:05;38.27;;;20.07;;
60726;SDS011;46577;49.004;12.120;2023-12-07T12:12:34;37.73;;;20.40;;
60726;SDS011;46577;49.004;12.120;2023-12-07T12:15:00;40.70;;;22.87;;
60726;SDS011;46577;49.004;12.120;2023-12-07T12:17:26;37.07;;;22.03;;
60726;SDS011;46577;49.004;12.120;2023-12-07T12:19:52;35.13;;;21.37;;
60726;SDS011;46577;49.004;12.120;2023-12-07T12:22:19;39.50;;;21.80;;
60726;SDS011;46577;49.004;12.120;2023-12-07T12:24:46;40.70;;;23.47;;
60726;SDS011;46577;49.004;12.120;2023-12-07T12:27:12;38.80;;;20.73;;
60726;SDS011;46577;49.004;12.120;2023-12-07T12:29:38;36.50;;;21.10;;
60726;SDS011;46577;49.004;12.120;2023-12-07T12:32:05;36.57;;;21.63;;
60726;SDS011;46577;49.004;12.120;2023-12-07T12:34:34;41.13;;;21.67;;
60726;SDS011;46577;49.004;12.120;2023-12-07T12:37:00;41.00;;;22.20;;
60726;SDS011;46577;49.004;12.120;2023-12-07T12:39:27;36.77;;;22.03;;
60726;SDS011;46577;49.004;12.120;2023-12-07T12:41:55;42.93;;;23.23;;
60726;SDS011;46577;49.004;12.120;2023-12-07T12:44:21;40.83;;;22.87;;
60726;SDS011;46577;49.004;12.120;2023-12-07T12:46:48;40.20;;;21.93;;
60726;SDS011;46577;49.004;12.120;2023-12-07T12:49:14;45.67;;;22.73;;
60726;SDS011;46577;49.004;12.120;2023-12-07T12:51:41;39.00;;;20.07;;
60726;SDS011;46577;49.004;12.120;2023-12-07T12:54:09;32.67;;;18.73;;
60726;SDS011;46577;49.004;12.120;2023-12-07T12:56:36;36.43;;;20.40;;
60726;SDS011;46577;49.004;12.120;2023-12-07T12:59:02;39.23;;;20.50;;
60726;SDS011;46577;49.004;12.120;2023-12-07T13:01:28;39.60;;;20.00;;
60726;SDS011;46577;49.004;12.120;2023-12-07T13:03:54;35.40;;;20.50;;
60726;SDS011;46577;49.004;12.120;2023-12-07T13:06:22;40.00;;;19.87;;
60726;SDS011;46577;49.004;12.120;2023-12-07T13:08:48;36.20;;;19.37;;
60726;SDS011;46577;49.004;12.120;2023-12-07T13:11:15;35.10;;;19.10;;
60726;SDS011;46577;49.004;12.120;2023-12-07T13:13:41;29.93;;;17.77;;
60726;SDS011;46577;49.004;12.120;2023-12-07T13:16:07;34.70;;;18.93;;
60726;SDS011;46577;49.004;12.120;2023-12-07T13:18:33;33.67;;;20.47;;
60726;SDS011;46577;49.004;12.120;2023-12-07T13:20:59;33.00;;;20.10;;
60726;SDS011;46577;49.004;12.120;2023-12-07T13:23:26;37.20;;;19.97;;
60726;SDS011;46577;49.004;12.120;2023-12-07T13:25:52;37.23;;;20.03;;
60726;SDS011;46577;49.004;12.120;2023-12-07T13:28:18;36.37;;;20.23;;
60726;SDS011;46577;49.004;12.120;2023-12-07T13:30:44;34.53;;;19.00;;
60726;SDS011;46577;49.004;12.120;2023-12-07T13:33:10;37.33;;;20.23;;
60726;SDS011;46577;49.004;12.120;2023-12-07T13:35:36;38.20;;;18.80;;
60726;SDS011;46577;49.004;12.120;2023-12-07T13:38:02;42.70;;;19.67;;
60726;SDS011;46577;49.004;12.120;2023-12-07T13:40:29;36.47;;;20.53;;
60726;SDS011;46577;49.004;12.120;2023-12-07T13:42:55;35.60;;;19.63;;
60726;SDS011;46577;49.004;12.120;2023-12-07T13:45:21;36.90;;;20.80;;
60726;SDS011;46577;49.004;12.120;2023-12-07T13:47:47;42.47;;;21.70;;
60726;SDS011;46577;49.004;12.120;2023-12-07T13:50:13;38.13;;;21.30;;
60726;SDS011;46577;49.004;12.120;2023-12-07T13:52:39;37.73;;;21.10;;
60726;SDS011;46577;49.004;12.120;2023-12-07T13:55:07;44.80;;;22.70;;
60726;SDS011;46577;49.004;12.120;2023-12-07T13:57:34;33.23;;;19.40;;
60726;SDS011;46577;49.004;12.120;2023-12-07T14:00:00;36.00;;;21.17;;
60726;SDS011;46577;49.004;12.120;2023-12-07T14:02:26;48.47;;;23.70;;
60726;SDS011;46577;49.004;12.120;2023-12-07T14:04:53;41.67;;;21.40;;
60726;SDS011;46577;49.004;12.120;2023-12-07T14:07:20;50.60;;;23.20;;
60726;SDS011;46577;49.004;12.120;2023-12-07T14:09:49;44.53;;;21.80;;
60726;SDS011;46577;49.004;12.120;2023-12-07T14:12:15;41.80;;;22.90;;